createdAt,value
2023-03-30T00:00:20.635Z,73.11
2023-03-30T00:02:49.546Z,73.08
2023-03-30T00:05:20.914Z,72.93
2023-03-30T00:07:48.079Z,72.77
2023-03-30T00:10:19.206Z,72.86
2023-03-30T00:12:47.478Z,72.95
2023-03-30T00:15:15.530Z,72.76
2023-03-30T00:17:42.501Z,73.37
2023-03-30T00:20:11.974Z,73.34
2023-03-30T00:22:39.253Z,72.91
2023-03-30T00:25:08.819Z,73.17
2023-03-30T00:27:36.482Z,72.93
2023-03-30T00:30:07.842Z,72.98
2023-03-30T00:32:34.924Z,72.83
2023-03-30T00:35:01.988Z,72.66
2023-03-30T00:37:29.848Z,72.24
2023-03-30T00:39:56.887Z,72.08
2023-03-30T00:42:23.842Z,71.82
2023-03-30T00:45:16.413Z,72.08
2023-03-30T00:47:59.976Z,71.66
2023-03-30T00:50:48.534Z,71.94
2023-03-30T00:53:21.594Z,72.01
2023-03-30T00:55:49.356Z,72.26
2023-03-30T00:58:16.574Z,71.90
2023-03-30T01:00:43.645Z,72.03
2023-03-30T01:03:17.723Z,72.18
2023-03-30T01:05:45.044Z,72.04
2023-03-30T01:08:14.161Z,72.32
2023-03-30T01:10:41.260Z,71.98
2023-03-30T01:13:08.175Z,72.25
2023-03-30T01:15:36.196Z,72.30
2023-03-30T01:18:09.025Z,72.38
2023-03-30T01:21:14.310Z,72.17
2023-03-30T01:24:18.533Z,72.49
2023-03-30T01:26:51.846Z,72.26
2023-03-30T01:29:25.299Z,72.67
2023-03-30T01:32:01.289Z,72.43
2023-03-30T01:34:44.281Z,72.32
2023-03-30T01:37:43.592Z,72.69
2023-03-30T01:40:13.977Z,72.07
2023-03-30T01:42:43.589Z,72.03
2023-03-30T01:45:15.683Z,72.46
2023-03-30T01:48:07.193Z,72.45
2023-03-30T01:50:38.334Z,72.55
2023-03-30T01:53:18.543Z,72.72
2023-03-30T01:56:06.844Z,72.56
2023-03-30T01:58:43.734Z,72.68
2023-03-30T02:01:11.163Z,72.51
2023-03-30T02:03:39.364Z,72.81
2023-03-30T02:06:21.867Z,72.75
2023-03-30T02:08:49.693Z,72.65
2023-03-30T02:11:16.631Z,72.88
2023-03-30T02:13:43.499Z,73.02
2023-03-30T02:16:16.930Z,73.24
2023-03-30T02:18:43.869Z,72.92
2023-03-30T02:21:10.670Z,72.95
2023-03-30T02:23:39.580Z,72.70
2023-03-30T02:26:08.339Z,72.96
2023-03-30T02:28:35.504Z,72.75
2023-03-30T02:31:02.744Z,72.80
2023-03-30T02:33:59.419Z,72.72
2023-03-30T02:36:48.138Z,72.79
2023-03-30T02:39:17.949Z,72.81
2023-03-30T02:42:00.724Z,73.00
2023-03-30T02:44:55.369Z,72.74
2023-03-30T02:47:54.103Z,73.01
2023-03-30T02:50:39.104Z,72.47
2023-03-30T02:53:27.547Z,72.58
2023-03-30T02:56:07.162Z,72.65
2023-03-30T02:58:36.508Z,72.25
2023-03-30T03:01:06.000Z,72.22
2023-03-30T03:03:37.491Z,71.84
2023-03-30T03:06:04.495Z,72.17
2023-03-30T03:08:34.706Z,72.12
2023-03-30T03:11:01.731Z,72.09
2023-03-30T03:13:28.683Z,72.23
2023-03-30T03:15:58.261Z,72.33
2023-03-30T03:18:25.081Z,72.31
2023-03-30T03:20:53.323Z,72.53
2023-03-30T03:23:20.355Z,72.16
2023-03-30T03:25:48.528Z,72.08
2023-03-30T03:28:15.610Z,72.41
2023-03-30T03:30:42.930Z,72.24
2023-03-30T03:33:09.937Z,72.58
2023-03-30T03:35:39.543Z,72.51
2023-03-30T03:38:07.829Z,72.52
2023-03-30T03:40:34.786Z,72.10
2023-03-30T03:43:01.873Z,72.45
2023-03-30T03:45:28.728Z,72.35
2023-03-30T03:47:55.740Z,72.21
2023-03-30T03:50:22.640Z,72.17
2023-03-30T03:52:49.594Z,72.28
2023-03-30T03:55:16.446Z,72.22
2023-03-30T03:57:45.195Z,72.62
2023-03-30T04:00:24.323Z,72.29
2023-03-30T04:02:51.087Z,72.40
2023-03-30T04:05:17.889Z,72.22
2023-03-30T04:07:46.565Z,72.04
2023-03-30T04:10:13.674Z,72.36
2023-03-30T04:12:40.454Z,72.40
2023-03-30T04:15:07.970Z,72.09
2023-03-30T04:17:35.397Z,72.35
2023-03-30T04:20:06.310Z,72.29
2023-03-30T04:22:42.218Z,72.19
2023-03-30T04:25:09.906Z,72.29
2023-03-30T04:27:37.833Z,72.59
2023-03-30T04:30:08.589Z,72.42
2023-03-30T04:32:38.957Z,72.57
2023-03-30T04:35:06.439Z,72.24
2023-03-30T04:37:33.395Z,72.63
2023-03-30T04:40:01.750Z,72.46
2023-03-30T04:42:30.759Z,72.69
2023-03-30T04:44:58.170Z,72.49
2023-03-30T04:47:25.926Z,72.03
2023-03-30T04:49:52.723Z,72.43
2023-03-30T04:52:19.736Z,72.05
2023-03-30T04:54:46.682Z,72.21
2023-03-30T04:57:14.269Z,72.17
2023-03-30T04:59:41.629Z,72.32
2023-03-30T05:02:09.081Z,72.50
2023-03-30T05:04:36.026Z,72.57
2023-03-30T05:07:03.018Z,72.49
2023-03-30T05:09:29.835Z,72.76
2023-03-30T05:11:56.729Z,72.87
2023-03-30T05:14:23.632Z,72.84
2023-03-30T05:16:50.411Z,72.68
2023-03-30T05:19:17.339Z,72.88
2023-03-30T05:21:44.472Z,73.15
2023-03-30T05:24:13.142Z,73.04
2023-03-30T05:26:40.006Z,72.95
2023-03-30T05:29:06.864Z,73.20
2023-03-30T05:31:33.635Z,73.10
2023-03-30T05:34:00.604Z,73.16
2023-03-30T05:36:27.548Z,72.99
2023-03-30T05:38:54.295Z,73.42
2023-03-30T05:41:21.275Z,73.38
2023-03-30T05:43:49.248Z,73.44
2023-03-30T05:46:16.050Z,73.07
2023-03-30T05:48:42.856Z,73.15
2023-03-30T05:51:09.882Z,72.99
2023-03-30T05:53:36.839Z,73.09
2023-03-30T05:56:03.710Z,73.27
2023-03-30T05:58:31.042Z,73.00
2023-03-30T06:00:58.567Z,73.09
2023-03-30T06:03:25.481Z,73.03
2023-03-30T06:05:53.865Z,72.90
2023-03-30T06:08:22.592Z,72.78
2023-03-30T06:10:53.939Z,72.95
2023-03-30T06:13:20.844Z,72.96
2023-03-30T06:15:47.720Z,73.09
2023-03-30T06:18:14.583Z,73.17
2023-03-30T06:20:41.453Z,73.51
2023-03-30T06:23:08.207Z,73.63
2023-03-30T06:25:36.018Z,73.37
2023-03-30T06:28:03.266Z,73.58
2023-03-30T06:30:30.190Z,73.49
2023-03-30T06:32:57.179Z,73.64
2023-03-30T06:35:24.217Z,73.52
2023-03-30T06:37:51.028Z,73.76
2023-03-30T06:40:19.267Z,73.82
2023-03-30T06:42:46.199Z,73.97
2023-03-30T06:45:13.789Z,74.15
2023-03-30T06:47:41.791Z,73.97
2023-03-30T06:50:09.324Z,74.28
2023-03-30T06:52:39.233Z,74.02
2023-03-30T06:55:06.473Z,74.13
2023-03-30T06:57:33.293Z,74.01
2023-03-30T07:00:00.196Z,74.24
2023-03-30T07:02:27.946Z,74.60
2023-03-30T07:04:54.882Z,74.98
2023-03-30T07:07:21.747Z,74.81
2023-03-30T07:09:48.593Z,74.46
2023-03-30T07:12:15.516Z,74.86
2023-03-30T07:14:42.404Z,74.72
2023-03-30T07:17:09.365Z,74.38
2023-03-30T07:19:36.931Z,74.86
2023-03-30T07:22:04.473Z,75.18
2023-03-30T07:24:31.682Z,75.58
2023-03-30T07:26:58.548Z,75.42
2023-03-30T07:29:27.231Z,75.20
2023-03-30T07:31:56.741Z,74.96
2023-03-30T07:34:23.664Z,75.14
2023-03-30T07:36:50.770Z,74.88
2023-03-30T07:39:18.064Z,74.45
2023-03-30T07:41:44.906Z,74.44
2023-03-30T07:44:11.724Z,74.42
2023-03-30T07:46:39.088Z,74.26
2023-03-30T07:49:06.233Z,73.48
2023-03-30T07:51:33.519Z,73.26
2023-03-30T07:54:00.830Z,73.35
2023-03-30T07:56:27.576Z,73.14
2023-03-30T07:58:54.347Z,73.71
2023-03-30T08:01:21.349Z,73.33
2023-03-30T08:03:48.491Z,73.46
2023-03-30T08:06:15.731Z,73.70
2023-03-30T08:08:43.685Z,73.74
2023-03-30T08:11:11.454Z,73.50
2023-03-30T08:13:40.018Z,73.70
2023-03-30T08:16:09.189Z,73.63
2023-03-30T08:18:37.242Z,74.02
2023-03-30T08:21:04.405Z,73.60
2023-03-30T08:23:31.933Z,73.12
2023-03-30T08:25:59.536Z,72.78
2023-03-30T08:28:26.528Z,72.73
2023-03-30T08:30:53.525Z,72.95
2023-03-30T08:33:20.523Z,72.82
2023-03-30T08:35:48.258Z,72.35
2023-03-30T08:38:17.940Z,71.85
2023-03-30T08:40:45.455Z,72.26
2023-03-30T08:43:37.300Z,72.53
2023-03-30T08:46:04.304Z,73.11
2023-03-30T08:48:33.644Z,73.05
2023-03-30T08:51:23.592Z,72.71
2023-03-30T08:53:58.335Z,72.57
2023-03-30T08:56:29.281Z,71.99
2023-03-30T08:59:17.267Z,71.31
2023-03-30T09:01:53.398Z,70.67
2023-03-30T09:04:33.993Z,70.65
2023-03-30T09:07:07.977Z,70.83
2023-03-30T09:09:40.768Z,70.49
2023-03-30T09:12:34.516Z,69.75
2023-03-30T09:15:23.119Z,69.26
2023-03-30T09:18:17.928Z,69.55
2023-03-30T09:20:46.071Z,67.48
2023-03-30T09:23:14.412Z,67.42
2023-03-30T09:26:11.477Z,67.27
2023-03-30T09:29:01.290Z,67.29
2023-03-30T09:31:33.327Z,67.66
2023-03-30T09:34:07.148Z,68.37
2023-03-30T09:36:40.065Z,68.21
2023-03-30T09:39:13.638Z,65.45
2023-03-30T09:42:13.139Z,64.92
2023-03-30T09:44:48.051Z,64.27
2023-03-30T09:47:21.144Z,63.79
2023-03-30T09:49:47.969Z,64.15
2023-03-30T09:52:22.638Z,64.21
2023-03-30T09:54:49.457Z,64.40
2023-03-30T09:57:36.540Z,63.14
2023-03-30T10:00:04.999Z,62.46
2023-03-30T10:02:34.045Z,61.98
2023-03-30T10:05:02.640Z,62.01
2023-03-30T10:07:37.907Z,59.63
2023-03-30T10:10:13.961Z,59.86
2023-03-30T10:12:40.908Z,60.73
2023-03-30T10:15:14.774Z,59.76
2023-03-30T10:17:41.578Z,60.52
2023-03-30T10:20:27.101Z,59.90
2023-03-30T10:23:01.790Z,57.97
2023-03-30T10:25:29.797Z,56.88
2023-03-30T10:27:58.321Z,56.40
2023-03-30T10:30:27.249Z,57.11
2023-03-30T10:32:55.134Z,56.16
2023-03-30T10:35:26.497Z,55.94
2023-03-30T10:37:54.830Z,55.40
2023-03-30T10:40:32.746Z,55.71
2023-03-30T10:43:00.831Z,56.09
2023-03-30T10:45:33.093Z,56.61
2023-03-30T10:48:03.005Z,56.66
2023-03-30T10:50:50.826Z,56.68
2023-03-30T10:53:30.103Z,56.68
2023-03-30T10:56:06.213Z,56.42
2023-03-30T10:59:27.248Z,55.96
2023-03-30T11:02:17.855Z,56.45
2023-03-30T11:05:06.674Z,57.27
2023-03-30T11:07:49.624Z,56.99
2023-03-30T11:10:21.531Z,56.77
2023-03-30T11:12:55.209Z,56.47
2023-03-30T11:15:27.530Z,56.00
2023-03-30T11:17:59.793Z,55.89
2023-03-30T11:20:29.360Z,55.96
2023-03-30T11:25:27.837Z,56.91
2023-03-30T11:28:04.263Z,56.91
2023-03-30T11:30:31.835Z,57.43
2023-03-30T11:33:32.764Z,57.02
2023-03-30T11:36:17.751Z,56.38
2023-03-30T11:38:59.331Z,56.90
2023-03-30T11:41:36.706Z,56.63
2023-03-30T11:44:03.969Z,55.97
2023-03-30T11:46:39.883Z,56.48
2023-03-30T11:49:13.556Z,57.26
2023-03-30T11:51:49.718Z,56.90
2023-03-30T11:54:28.721Z,57.36
2023-03-30T11:57:11.277Z,58.46
2023-03-30T11:59:57.542Z,58.49
2023-03-30T12:02:39.619Z,58.97
2023-03-30T12:05:28.504Z,59.09
2023-03-30T12:08:07.220Z,59.47
2023-03-30T12:10:41.671Z,59.32
2023-03-30T12:13:15.797Z,59.44
2023-03-30T12:15:46.146Z,59.36
2023-03-30T12:18:33.377Z,60.01
2023-03-30T12:21:12.255Z,59.74
2023-03-30T12:23:54.654Z,59.73
2023-03-30T12:26:25.804Z,60.51
2023-03-30T12:29:48.150Z,60.69
2023-03-30T12:31:59.472Z,61.01
2023-03-30T12:34:27.762Z,61.04
2023-03-30T12:37:14.840Z,61.19
2023-03-30T12:39:55.234Z,60.63
2023-03-30T12:42:34.454Z,60.86
2023-03-30T12:45:12.125Z,61.31
2023-03-30T12:48:05.332Z,61.79
2023-03-30T12:50:52.384Z,61.19
2023-03-30T12:53:37.774Z,60.31
2023-03-30T12:56:07.740Z,60.56
2023-03-30T12:59:00.360Z,59.88
2023-03-30T13:01:39.850Z,60.02
2023-03-30T13:04:09.334Z,60.30
2023-03-30T13:06:37.683Z,59.90
2023-03-30T13:09:16.629Z,60.38
2023-03-30T13:12:06.456Z,60.74
2023-03-30T13:14:36.069Z,61.04
2023-03-30T13:17:06.563Z,60.32
2023-03-30T13:19:33.455Z,59.96
2023-03-30T13:22:12.477Z,59.87
2023-03-30T13:24:41.180Z,60.38
2023-03-30T13:27:14.217Z,60.44
2023-03-30T13:29:41.780Z,60.68
2023-03-30T13:32:38.505Z,60.88
2023-03-30T13:35:33.233Z,60.84
2023-03-30T13:38:12.398Z,61.28
2023-03-30T13:41:23.536Z,61.83
2023-03-30T13:44:03.856Z,62.12
2023-03-30T13:46:50.469Z,61.89
2023-03-30T13:49:26.357Z,61.76
2023-03-30T13:51:53.366Z,61.99
2023-03-30T13:54:24.433Z,62.18
2023-03-30T13:57:03.840Z,62.18
2023-03-30T13:59:32.040Z,62.34
2023-03-30T14:02:00.175Z,62.30
2023-03-30T14:04:32.373Z,62.79
2023-03-30T14:07:14.469Z,63.05
2023-03-30T14:09:41.544Z,62.94
2023-03-30T14:12:08.482Z,62.62
2023-03-30T14:14:42.066Z,62.79
2023-03-30T14:17:22.443Z,62.59
2023-03-30T14:20:07.113Z,62.33
2023-03-30T14:22:37.287Z,62.50
2023-03-30T14:25:05.586Z,62.89
2023-03-30T14:27:33.701Z,62.65
2023-03-30T14:30:00.680Z,62.68
2023-03-30T14:32:27.618Z,62.83
2023-03-30T14:34:54.673Z,62.58
2023-03-30T14:37:23.179Z,62.30
2023-03-30T14:39:56.300Z,62.26
2023-03-30T14:42:27.681Z,62.49
2023-03-30T14:44:56.441Z,62.68
2023-03-30T14:47:24.576Z,62.94
2023-03-30T14:49:52.291Z,63.24
2023-03-30T14:52:24.451Z,63.20
2023-03-30T14:55:05.159Z,63.05
2023-03-30T14:57:38.367Z,63.50
2023-03-30T15:00:22.755Z,63.67
2023-03-30T15:03:02.567Z,63.56
2023-03-30T15:05:40.657Z,63.38
2023-03-30T15:08:11.847Z,63.84
2023-03-30T15:11:08.928Z,64.02
2023-03-30T15:13:37.642Z,64.11
2023-03-30T15:16:04.878Z,64.06
2023-03-30T15:18:31.736Z,64.38
2023-03-30T15:20:58.541Z,64.38
2023-03-30T15:23:25.472Z,64.15
2023-03-30T15:25:52.460Z,64.10
2023-03-30T15:28:20.760Z,64.09
2023-03-30T15:30:50.882Z,63.98
2023-03-30T15:33:31.272Z,63.99
2023-03-30T15:36:02.002Z,64.27
2023-03-30T15:38:34.411Z,64.50
2023-03-30T15:41:02.510Z,64.45
2023-03-30T15:43:33.575Z,64.83
2023-03-30T15:46:13.744Z,64.96
2023-03-30T15:48:45.593Z,64.61
2023-03-30T15:51:16.783Z,65.09
2023-03-30T15:53:49.572Z,64.74
2023-03-30T15:56:25.518Z,64.83
2023-03-30T15:58:52.314Z,64.82
2023-03-30T16:01:19.209Z,65.12
2023-03-30T16:03:55.515Z,65.30
2023-03-30T16:06:23.099Z,65.32
2023-03-30T16:08:50.111Z,65.54
2023-03-30T16:11:18.679Z,65.66
2023-03-30T16:13:46.707Z,65.71
2023-03-30T16:16:14.514Z,65.48
2023-03-30T16:18:42.721Z,65.45
2023-03-30T16:21:11.098Z,65.02
2023-03-30T16:23:38.504Z,64.94
2023-03-30T16:26:06.228Z,65.13
2023-03-30T16:28:33.149Z,65.15
2023-03-30T16:31:01.520Z,65.36
2023-03-30T16:33:28.269Z,65.88
2023-03-30T16:35:55.107Z,65.97
2023-03-30T16:38:22.019Z,66.23
2023-03-30T16:40:53.210Z,66.68
2023-03-30T16:43:20.078Z,66.69
2023-03-30T16:45:47.060Z,67.05
2023-03-30T16:48:15.130Z,67.43
2023-03-30T16:50:43.500Z,67.92
2023-03-30T16:53:10.444Z,67.67
2023-03-30T16:55:37.838Z,67.69
2023-03-30T16:58:05.294Z,67.99
2023-03-30T17:00:33.948Z,68.00
2023-03-30T17:03:00.864Z,68.35
2023-03-30T17:05:27.730Z,68.10
2023-03-30T17:07:54.866Z,68.29
2023-03-30T17:10:29.104Z,68.39
2023-03-30T17:12:56.415Z,68.42
2023-03-30T17:15:24.921Z,69.04
2023-03-30T17:17:52.312Z,68.86
2023-03-30T17:20:23.601Z,68.52
2023-03-30T17:22:50.938Z,68.55
2023-03-30T17:25:20.822Z,69.12
2023-03-30T17:27:48.988Z,69.19
2023-03-30T17:30:18.459Z,69.48
2023-03-30T17:32:45.367Z,69.61
2023-03-30T17:35:12.269Z,69.50
2023-03-30T17:37:39.563Z,69.86
2023-03-30T17:40:23.471Z,70.25
2023-03-30T17:42:50.811Z,70.45
2023-03-30T17:45:18.978Z,70.50
2023-03-30T17:47:45.879Z,70.74
2023-03-30T17:50:24.594Z,70.71
2023-03-30T17:52:51.706Z,70.69
2023-03-30T17:55:19.310Z,70.65
2023-03-30T17:57:46.258Z,71.06
2023-03-30T18:00:17.385Z,71.16
2023-03-30T18:02:44.182Z,70.92
2023-03-30T18:05:11.527Z,71.08
2023-03-30T18:07:38.459Z,71.07
2023-03-30T18:10:17.716Z,71.12
2023-03-30T18:12:44.516Z,70.80
2023-03-30T18:15:11.559Z,70.95
2023-03-30T18:17:38.636Z,71.37
2023-03-30T18:20:34.176Z,71.34
2023-03-30T18:23:01.244Z,71.32
2023-03-30T18:25:32.470Z,71.56
2023-03-30T18:28:00.548Z,71.65
2023-03-30T18:30:31.968Z,71.89
2023-03-30T18:32:58.994Z,71.89
2023-03-30T18:35:27.719Z,71.90
2023-03-30T18:37:54.909Z,71.91
2023-03-30T18:40:26.813Z,72.05
2023-03-30T18:42:53.708Z,72.27
2023-03-30T18:45:27.382Z,72.47
2023-03-30T18:47:55.064Z,72.56
2023-03-30T18:50:44.926Z,72.57
2023-03-30T18:53:13.446Z,72.33
2023-03-30T18:55:42.078Z,72.92
2023-03-30T18:58:28.410Z,73.26
2023-03-30T19:00:55.739Z,73.59
2023-03-30T19:03:22.993Z,73.48
2023-03-30T19:05:50.539Z,73.37
2023-03-30T19:08:19.021Z,73.75
2023-03-30T19:10:46.345Z,73.70
2023-03-30T19:13:14.238Z,73.89
2023-03-30T19:15:41.343Z,73.86
2023-03-30T19:18:08.542Z,74.07
2023-03-30T19:20:37.976Z,73.85
2023-03-30T19:23:04.791Z,74.06
2023-03-30T19:25:31.569Z,74.16
2023-03-30T19:28:03.577Z,73.93
2023-03-30T19:30:32.878Z,74.17
2023-03-30T19:33:02.184Z,74.20
2023-03-30T19:35:29.159Z,74.30
2023-03-30T19:37:56.206Z,74.65
2023-03-30T19:40:23.142Z,74.81
2023-03-30T19:42:50.371Z,75.36
2023-03-30T19:45:18.835Z,74.88
2023-03-30T19:47:45.791Z,74.88
2023-03-30T19:50:18.190Z,74.81
2023-03-30T19:52:48.740Z,75.11
2023-03-30T19:55:15.886Z,75.14
2023-03-30T19:57:42.688Z,75.10
2023-03-30T20:00:13.099Z,74.88
2023-03-30T20:02:41.280Z,75.34
2023-03-30T20:05:10.327Z,75.19
2023-03-30T20:07:37.549Z,75.02
2023-03-30T20:10:05.513Z,75.05
2023-03-30T20:12:32.403Z,75.10
2023-03-30T20:15:00.173Z,75.05
2023-03-30T20:17:30.075Z,75.43
2023-03-30T20:19:58.221Z,75.47
2023-03-30T20:22:25.708Z,75.56
2023-03-30T20:24:52.438Z,75.64
2023-03-30T20:27:19.344Z,75.48
2023-03-30T20:29:46.268Z,75.31
2023-03-30T20:32:13.077Z,75.41
2023-03-30T20:34:40.363Z,75.69
2023-03-30T20:37:07.202Z,75.45
2023-03-30T20:39:34.357Z,75.97
2023-03-30T20:42:02.112Z,75.57
2023-03-30T20:44:31.973Z,75.80
2023-03-30T20:46:58.783Z,75.73
2023-03-30T20:49:25.990Z,76.04
2023-03-30T20:51:53.426Z,75.83
2023-03-30T20:54:20.804Z,76.12
2023-03-30T20:56:47.764Z,76.40
2023-03-30T20:59:14.678Z,76.17
2023-03-30T21:01:41.547Z,76.50
2023-03-30T21:04:08.443Z,76.25
2023-03-30T21:06:35.424Z,76.22
2023-03-30T21:09:04.096Z,76.51
2023-03-30T21:11:33.584Z,76.62
2023-03-30T21:14:01.689Z,76.97
2023-03-30T21:16:28.645Z,76.73
2023-03-30T21:18:55.562Z,76.92
2023-03-30T21:21:22.489Z,76.82
2023-03-30T21:23:49.350Z,76.88
2023-03-30T21:26:18.642Z,76.79
2023-03-30T21:28:45.688Z,76.86
2023-03-30T21:31:14.390Z,76.97
2023-03-30T21:33:41.474Z,76.76
2023-03-30T21:36:09.050Z,76.84
2023-03-30T21:38:36.476Z,77.44
2023-03-30T21:41:14.080Z,77.63
2023-03-30T21:43:44.138Z,77.92
2023-03-30T21:46:13.476Z,77.78
2023-03-30T21:48:41.602Z,77.88
2023-03-30T21:51:09.282Z,77.77
2023-03-30T21:53:36.401Z,78.03
2023-03-30T21:56:03.494Z,78.46
2023-03-30T21:58:30.349Z,78.92
2023-03-30T22:01:08.875Z,79.01
2023-03-30T22:03:38.686Z,79.32
2023-03-30T22:06:07.094Z,79.99
2023-03-30T22:08:34.239Z,80.05
2023-03-30T22:11:12.803Z,80.47
2023-03-30T22:13:39.723Z,80.07
2023-03-30T22:16:12.925Z,80.50
2023-03-30T22:18:40.349Z,80.51
2023-03-30T22:21:08.658Z,80.54
2023-03-30T22:23:35.691Z,80.88
2023-03-30T22:26:02.476Z,81.30
2023-03-30T22:28:29.837Z,81.44
2023-03-30T22:30:56.668Z,81.61
2023-03-30T22:33:23.432Z,81.84
2023-03-30T22:35:50.197Z,81.77
2023-03-30T22:38:17.051Z,81.39
2023-03-30T22:40:43.831Z,81.68
2023-03-30T22:43:11.447Z,81.92
2023-03-30T22:45:38.699Z,81.86
2023-03-30T22:48:06.084Z,81.70
2023-03-30T22:50:34.102Z,81.73
2023-03-30T22:53:01.076Z,82.29
2023-03-30T22:55:28.821Z,83.10
2023-03-30T22:57:57.072Z,83.24
2023-03-30T23:00:23.911Z,83.71
2023-03-30T23:02:51.542Z,83.88
2023-03-30T23:05:21.444Z,84.20
2023-03-30T23:07:49.144Z,84.23
2023-03-30T23:10:18.420Z,84.32
2023-03-30T23:12:45.764Z,85.06
2023-03-30T23:15:12.726Z,85.60
2023-03-30T23:17:39.823Z,85.76
2023-03-30T23:20:08.349Z,85.57
2023-03-30T23:22:35.289Z,86.00
2023-03-30T23:25:02.017Z,86.15
2023-03-30T23:27:28.755Z,86.24
2023-03-30T23:29:55.919Z,86.03
2023-03-30T23:32:22.642Z,86.47
2023-03-30T23:34:49.377Z,86.54
2023-03-30T23:37:17.766Z,87.05
2023-03-30T23:39:44.618Z,86.74
2023-03-30T23:42:11.846Z,87.17
2023-03-30T23:44:38.704Z,87.44
2023-03-30T23:47:05.494Z,87.20
2023-03-30T23:49:32.194Z,87.22
2023-03-30T23:51:59.090Z,87.97
2023-03-30T23:54:25.905Z,87.83
2023-03-30T23:56:57.367Z,87.78
2023-03-30T23:59:24.778Z,88.43
